Time;durP1;ratioP1;P1;durP2;ratioP2;P2;SDS_P1;SDS_P2;PMS_P1;PMS_P2;Temp;Humidity;BMP_temperature;BMP_pressure;BME280_temperature;BME280_humidity;BME280_pressure;Samples;Min_cycle;Max_cycle;Signal;HPM_P1;HPM_P2
2022/03/12 00:01:38;93672.00;0.31;162.65;0.00;0.00;0.62;;;;;12.80;1.00;;;;;;2270197;61;1155;-85
2022/03/12 00:04:07;190590.00;0.64;329.72;0.00;0.00;0.62;;;;;12.80;1.00;;;;;;2270079;61;1355;-85
2022/03/12 00:06:34;112693.00;0.38;195.48;0.00;0.00;0.62;;;;;12.90;1.00;;;;;;2269977;61;1796;-84
2022/03/12 00:09:01;196756.00;0.66;340.34;0.00;0.00;0.62;;;;;12.80;1.00;;;;;;2270776;61;2005;-85
2022/03/12 00:11:34;111683.00;0.37;193.73;0.00;0.00;0.62;;;;;12.70;1.00;;;;;;2270193;61;943;-84
2022/03/12 00:14:03;356265.00;1.19;614.63;17337.00;0.06;30.66;;;;;12.60;1.00;;;;;;2344359;40;3715;-85
2022/03/12 00:16:33;265667.00;0.89;458.89;0.00;0.00;0.62;;;;;12.40;1.00;;;;;;2270309;61;2231;-84
2022/03/12 00:19:02;166356.00;0.55;287.99;0.00;0.00;0.62;;;;;12.10;1.00;;;;;;2270218;61;1072;-85
2022/03/12 00:21:33;54025.00;0.18;94.15;0.00;0.00;0.62;;;;;11.90;1.00;;;;;;2270455;61;2372;-84
2022/03/12 00:24:00;121821.00;0.41;211.22;0.00;0.00;0.62;;;;;10.90;1.00;;;;;;2270275;61;1763;-84
2022/03/12 00:26:29;152971.00;0.51;264.93;0.00;0.00;0.62;;;;;10.00;1.00;;;;;;2270124;61;1700;-84
2022/03/12 00:28:57;118745024.00;395.82;67824728.00;48353.00;0.16;84.34;;;;;10.00;1.00;;;;;;2270431;61;2014;-85
2022/03/12 00:31:25;148158.00;0.49;256.63;0.00;0.00;0.62;;;;;10.20;1.00;;;;;;2270516;61;1187;-84
2022/03/12 00:33:54;200829.00;0.67;347.35;0.00;0.00;0.62;;;;;10.20;1.00;;;;;;2269621;61;1609;-84
2022/03/12 00:36:21;97888.00;0.33;169.93;0.00;0.00;0.62;;;;;9.90;1.00;;;;;;2270268;61;1271;-84
2022/03/12 00:38:49;247434.00;0.82;427.54;0.00;0.00;0.62;;;;;9.90;1.00;;;;;;2270252;61;1374;-84
2022/03/12 00:41:17;81235.00;0.27;141.17;0.00;0.00;0.62;;;;;10.40;1.00;;;;;;2270255;61;1652;-82
2022/03/12 00:43:44;136912.00;0.46;237.25;0.00;0.00;0.62;;;;;10.60;1.00;;;;;;2270137;61;1266;-82
2022/03/12 00:46:11;127141.00;0.42;220.40;0.00;0.00;0.62;;;;;10.60;1.00;;;;;;2270554;61;1125;-84
2022/03/12 00:51:11;374120.00;1.25;645.32;0.00;0.00;0.62;;;;;11.00;1.00;;;;;;2283073;40;3500;-85
2022/03/12 00:53:39;142380.00;0.47;246.67;0.00;0.00;0.62;;;;;11.30;1.00;;;;;;2274148;61;1666;-84
2022/03/12 00:56:08;159118.00;0.53;275.52;0.00;0.00;0.62;;;;;11.80;1.00;;;;;;2271064;61;1045;-84
2022/03/12 00:58:35;141359.00;0.47;244.91;0.00;0.00;0.62;;;;;11.70;1.00;;;;;;2270854;61;1213;-84
2022/03/12 01:01:03;62149.00;0.21;108.19;0.00;0.00;0.62;;;;;12.00;1.00;;;;;;2271255;61;1155;-83
2022/03/12 01:03:30;72223.00;0.24;125.60;0.00;0.00;0.62;;;;;12.20;1.00;;;;;;2270431;61;1517;-84
2022/03/12 01:06:03;370895.00;1.24;639.78;0.00;0.00;0.62;;;;;12.20;1.00;;;;;;2270496;61;1541;-84
2022/03/12 01:08:33;201693.00;0.67;348.84;0.00;0.00;0.62;;;;;12.00;1.00;;;;;;2269946;61;1946;-83
2022/03/12 01:11:06;175109.00;0.58;303.07;0.00;0.00;0.62;;;;;12.10;1.00;;;;;;2270427;61;933;-85
2022/03/12 01:13:33;35703.00;0.12;62.45;0.00;0.00;0.62;;;;;12.40;1.00;;;;;;2270450;61;1568;-85
2022/03/12 01:16:01;377244.00;1.26;650.69;64375.00;0.21;112.04;;;;;12.10;1.00;;;;;;2269989;61;1482;-85
2022/03/12 01:18:28;122822.00;0.41;212.95;0.00;0.00;0.62;;;;;11.70;1.00;;;;;;2269922;61;1134;-84
2022/03/12 01:20:56;87590.00;0.29;152.15;0.00;0.00;0.62;;;;;11.60;1.00;;;;;;2270442;61;1546;-84
2022/03/12 01:23:25;205919.00;0.69;356.11;0.00;0.00;0.62;;;;;11.80;1.00;;;;;;2269934;61;1144;-84
2022/03/12 01:25:54;87205.00;0.29;151.48;0.00;0.00;0.62;;;;;11.90;1.00;;;;;;2269932;61;1364;-84
2022/03/12 01:28:21;119429.00;0.40;207.10;0.00;0.00;0.62;;;;;12.20;1.00;;;;;;2269114;61;2010;-85
2022/03/12 01:30:49;172851.00;0.58;299.18;0.00;0.00;0.62;;;;;12.40;1.00;;;;;;2270107;61;1087;-85
2022/03/12 01:33:16;246241.00;0.82;425.49;35032.00;0.12;61.29;;;;;12.70;1.00;;;;;;2269716;61;1739;-86
2022/03/12 01:35:43;125759.00;0.42;218.02;0.00;0.00;0.62;;;;;12.90;1.00;;;;;;2269909;61;1241;-86
2022/03/12 01:38:10;104838.00;0.35;181.92;0.00;0.00;0.62;;;;;13.00;1.00;;;;;;2269756;61;2221;-85
2022/03/12 01:40:37;219417.00;0.73;379.34;0.00;0.00;0.62;;;;;13.00;1.00;;;;;;2269732;61;2388;-85
2022/03/12 01:43:06;151892.00;0.51;263.07;0.00;0.00;0.62;;;;;13.10;1.00;;;;;;2270405;61;1169;-86
2022/03/12 01:45:35;156128.00;0.52;270.37;0.00;0.00;0.62;;;;;13.20;1.00;;;;;;2269690;61;1641;-84
2022/03/12 01:48:05;117281.00;0.39;203.39;0.00;0.00;0.62;;;;;13.00;1.00;;;;;;2269665;61;1949;-83
2022/03/12 01:50:34;132003.00;0.44;228.78;0.00;0.00;0.62;;;;;12.30;1.00;;;;;;2270025;61;1237;-84
2022/03/12 01:53:04;242341.00;0.81;418.78;0.00;0.00;0.62;;;;;11.70;1.00;;;;;;2269876;61;1495;-83
2022/03/12 01:55:32;244471.00;0.81;422.44;0.00;0.00;0.62;;;;;11.50;1.00;;;;;;2269485;61;1436;-85
2022/03/12 02:02:58;718844.00;2.40;1239.93;0.00;0.00;0.62;;;;;11.80;1.00;;;;;;2275689;61;1387;-84
2022/03/12 02:05:27;104482.00;0.35;181.31;0.00;0.00;0.62;;;;;11.90;1.00;;;;;;2274483;61;1413;-85
2022/03/12 02:07:58;307497.00;1.02;530.81;21328.00;0.07;37.57;;;;;12.10;1.00;;;;;;2273776;61;2009;-83
2022/03/12 02:10:25;314016.00;1.05;542.01;15834.00;0.05;28.06;;;;;11.70;1.00;;;;;;2273439;61;1061;-84
2022/03/12 02:12:52;172360.00;0.57;298.33;0.00;0.00;0.62;;;;;11.00;1.00;;;;;;2273916;61;1109;-84
2022/03/12 02:15:19;44548.00;0.15;77.76;0.00;0.00;0.62;;;;;11.20;1.00;;;;;;2274625;61;1370;-84
2022/03/12 02:17:46;282911.00;0.94;488.54;16274.00;0.05;28.82;;;;;11.50;1.00;;;;;;2274360;61;1563;-84
2022/03/12 02:20:16;138026.00;0.46;239.17;0.00;0.00;0.62;;;;;11.90;1.00;;;;;;2274901;61;1179;-85
2022/03/12 02:22:45;188793.00;0.63;326.63;0.00;0.00;0.62;;;;;11.70;1.00;;;;;;2274455;61;2327;-84
2022/03/12 02:25:13;12347.00;0.04;22.02;0.00;0.00;0.62;;;;;11.80;1.00;;;;;;2274309;61;1284;-84
2022/03/12 02:27:40;305471.00;1.02;527.32;35438.00;0.12;61.99;;;;;11.80;1.00;;;;;;2274380;61;1927;-84
2022/03/12 02:30:09;189947.00;0.63;328.62;34328.00;0.11;60.07;;;;;12.00;1.00;;;;;;2274612;61;1158;-84
2022/03/12 02:32:36;163869.00;0.55;283.71;0.00;0.00;0.62;;;;;12.00;1.00;;;;;;2274456;61;1371;-84
2022/03/12 02:35:11;69164.00;0.23;120.32;0.00;0.00;0.62;;;;;11.70;1.00;;;;;;2274483;61;1574;-83
2022/03/12 02:37:42;3615.00;0.01;6.89;0.00;0.00;0.62;;;;;10.80;1.00;;;;;;2274393;61;2377;-83
2022/03/12 02:40:13;48197.00;0.16;84.07;0.00;0.00;0.62;;;;;10.20;1.00;;;;;;2274566;61;1182;-85
2022/03/12 02:42:43;247118.00;0.82;426.99;13056.00;0.04;23.24;;;;;10.70;1.00;;;;;;2274383;61;1172;-84
2022/03/12 02:45:11;127239.00;0.42;220.57;0.00;0.00;0.62;;;;;10.90;1.00;;;;;;2274731;61;1480;-85
2022/03/12 02:47:43;86653.00;0.29;150.53;0.00;0.00;0.62;;;;;11.30;1.00;;;;;;2274206;61;1120;-85
2022/03/12 02:50:14;9194.00;0.03;16.55;0.00;0.00;0.62;;;;;11.50;1.00;;;;;;2275002;61;1264;-85
2022/03/12 02:52:44;289149.00;0.96;499.27;73764.00;0.25;128.26;;;;;11.40;1.00;;;;;;2274796;61;1621;-85
2022/03/12 02:55:13;32473.00;0.11;56.86;0.00;0.00;0.62;;;;;11.70;1.00;;;;;;2275066;61;1405;-85
2022/03/12 02:57:45;37116.00;0.12;64.90;0.00;0.00;0.62;;;;;11.90;1.00;;;;;;2274795;61;1135;-85
2022/03/12 03:00:16;169344.00;0.56;293.14;0.00;0.00;0.62;;;;;12.30;1.00;;;;;;2274302;61;1078;-84
2022/03/12 03:02:48;118406.00;0.39;205.33;0.00;0.00;0.62;;;;;12.30;1.00;;;;;;2274335;61;1727;-83
2022/03/12 03:05:30;87711.00;0.29;152.36;0.00;0.00;0.62;;;;;12.10;1.00;;;;;;2274699;61;1414;-84
2022/03/12 03:07:57;360922.00;1.20;622.63;85349.00;0.28;148.28;;;;;12.00;1.00;;;;;;2274564;61;1917;-85
2022/03/12 03:10:34;239255.00;0.80;413.47;80011.00;0.27;139.06;;;;;12.10;1.00;;;;;;2274177;61;1205;-84
2022/03/12 03:13:35;423962.00;1.41;731.00;88241.00;0.29;153.27;;;;;11.80;1.00;;;;;;2274340;61;1680;-85
2022/03/12 03:16:06;1164219.00;3.88;2025.66;185371.00;0.62;320.74;;;;;11.90;1.00;;;;;;2274551;61;1969;-85
2022/03/12 03:18:38;1251911.00;4.17;2184.36;181451.00;0.60;313.99;;;;;12.10;1.00;;;;;;2274694;61;1408;-84
2022/03/12 03:21:09;411307.00;1.37;709.24;0.00;0.00;0.62;;;;;12.30;1.00;;;;;;2275463;61;1463;-83
2022/03/12 03:23:36;415801.00;1.39;716.97;0.00;0.00;0.62;;;;;12.20;1.00;;;;;;2274052;61;1647;-85
2022/03/12 03:26:05;576083.00;1.92;992.94;36892.00;0.12;64.51;;;;;12.40;1.00;;;;;;2274381;61;1591;-86
2022/03/12 03:28:34;670557.00;2.24;1156.22;37333.00;0.12;65.27;;;;;12.50;1.00;;;;;;2274158;61;1918;-85
2022/03/12 03:31:01;709098.00;2.36;1223.02;50706.00;0.17;88.41;;;;;12.50;1.00;;;;;;2274235;61;1284;-85
2022/03/12 03:33:28;1376305.00;4.59;2412.45;67751.00;0.23;117.87;;;;;12.50;1.00;;;;;;2274247;61;1625;-84
2022/03/12 03:35:55;1050469.00;3.50;1822.07;103336.00;0.34;179.33;;;;;11.10;1.00;;;;;;2274429;61;1750;-84
2022/03/12 03:38:22;729291.00;2.43;1258.07;26854.00;0.09;47.14;;;;;10.70;1.00;;;;;;2274159;61;1595;-84
2022/03/12 03:40:51;827238.00;2.76;1428.67;85379.00;0.28;148.33;;;;;10.80;1.00;;;;;;2274603;61;1052;-85
2022/03/12 03:43:21;860296.00;2.87;1486.49;87276.00;0.29;151.60;;;;;10.80;1.00;;;;;;2274335;61;1190;-84
2022/03/12 03:45:52;1357050.00;4.52;2376.90;142100.00;0.47;246.19;;;;;10.90;1.00;;;;;;2274348;61;1616;-85
2022/03/12 03:48:21;549389.00;1.83;946.91;52366.00;0.17;91.28;;;;;11.60;1.00;;;;;;2274427;61;2018;-85
2022/03/12 03:50:50;1480363.00;4.93;2606.22;176385.00;0.59;305.26;;;;;12.20;1.00;;;;;;2274437;61;1736;-84
2022/03/12 03:53:22;673926.00;2.25;1162.05;28918.00;0.10;50.71;;;;;11.90;1.00;;;;;;2274972;61;1215;-86
2022/03/12 03:58:19;1228440.00;4.09;2141.72;72770.00;0.24;126.55;;;;;11.70;1.00;;;;;;2272124;61;1416;-85
2022/03/12 04:00:54;739082.00;2.46;1275.08;112636.00;0.38;195.38;;;;;11.90;1.00;;;;;;2269965;61;1093;-84
2022/03/12 04:03:24;641641.00;2.14;1106.18;48775.00;0.16;85.07;;;;;11.40;1.00;;;;;;2270540;61;1078;-84
2022/03/12 04:05:52;682211.00;2.27;1176.40;12622.00;0.04;22.49;;;;;10.70;1.00;;;;;;2270695;61;1414;-83
2022/03/12 04:08:21;118937392.00;396.46;68155208.00;72902.00;0.24;126.77;;;;;10.80;1.00;;;;;;2270391;61;1927;-83
2022/03/12 04:10:48;479484.00;1.60;826.51;37039.00;0.12;64.77;;;;;10.70;1.00;;;;;;2269992;61;1617;-84
2022/03/12 04:13:18;507409.00;1.69;874.58;71551.00;0.24;124.44;;;;;10.50;1.00;;;;;;2270291;61;1549;-84
2022/03/12 04:15:45;384321.00;1.28;662.85;0.00;0.00;0.62;;;;;11.00;1.00;;;;;;2270107;61;1249;-84
2022/03/12 04:18:15;577722.00;1.93;995.77;74432.00;0.25;129.42;;;;;11.00;1.00;;;;;;2270094;61;1649;-84
2022/03/12 04:20:43;68564.00;0.23;119.28;0.00;0.00;0.62;;;;;10.90;1.00;;;;;;2269921;61;1061;-84
2022/03/12 04:23:16;40428.00;0.13;70.63;0.00;0.00;0.62;;;;;10.50;1.00;;;;;;2269967;61;1672;-84
2022/03/12 04:25:43;81720.00;0.27;142.01;0.00;0.00;0.62;;;;;11.00;1.00;;;;;;2270204;61;1392;-81
2022/03/12 04:28:10;39642.00;0.13;69.27;0.00;0.00;0.62;;;;;11.50;1.00;;;;;;2270209;61;1582;-82
2022/03/12 04:30:38;65739.00;0.22;114.40;0.00;0.00;0.62;;;;;11.60;1.00;;;;;;2269842;61;1560;-82
2022/03/12 04:33:07;209393.00;0.70;362.09;0.00;0.00;0.62;;;;;11.70;1.00;;;;;;2270545;61;1051;-84
2022/03/12 04:35:36;151564.00;0.51;262.50;0.00;0.00;0.62;;;;;11.50;1.00;;;;;;2270107;61;1693;-84
2022/03/12 04:38:03;0.00;0.00;0.62;0.00;0.00;0.62;;;;;11.50;1.00;;;;;;2270087;61;1259;-80
2022/03/12 04:40:31;173099.00;0.58;299.60;18654.00;0.06;32.94;;;;;11.70;1.00;;;;;;2270016;61;1567;-84
2022/03/12 04:42:58;463073.00;1.54;798.27;0.00;0.00;0.62;;;;;11.60;1.00;;;;;;2270278;61;1076;-83
2022/03/12 04:45:27;553904.00;1.85;954.69;73753.00;0.25;128.25;;;;;11.20;1.00;;;;;;2269734;61;1673;-83
2022/03/12 04:47:55;357345.00;1.19;616.49;16020.00;0.05;28.38;;;;;11.00;1.00;;;;;;2269857;61;1583;-83
2022/03/12 04:50:24;435445.00;1.45;750.75;47304.00;0.16;82.52;;;;;10.60;1.00;;;;;;2269751;61;1930;-85
2022/03/12 04:52:57;142775.00;0.48;247.35;0.00;0.00;0.62;;;;;11.00;1.00;;;;;;2269892;61;1156;-84
2022/03/12 04:55:27;22537.00;0.08;39.66;0.00;0.00;0.62;;;;;11.40;1.00;;;;;;2270006;61;1376;-83
2022/03/12 04:57:54;55635.00;0.19;96.93;0.00;0.00;0.62;;;;;11.60;1.00;;;;;;2269749;61;2261;-83
2022/03/12 05:00:25;0.00;0.00;0.62;0.00;0.00;0.62;;;;;11.80;1.00;;;;;;2270142;61;1695;-82
2022/03/12 05:02:54;103279.00;0.34;179.23;0.00;0.00;0.62;;;;;11.60;1.00;;;;;;2270329;61;1149;-84
2022/03/12 05:05:22;248040.00;0.83;428.58;5269.00;0.02;9.75;;;;;11.60;1.00;;;;;;2286206;55;3850;-89
2022/03/12 05:10:18;654607.00;2.18;1128.61;0.00;0.00;0.62;;;;;11.60;1.00;;;;;;2275106;61;1989;-83
2022/03/12 05:12:47;226849.00;0.76;392.13;0.00;0.00;0.62;;;;;11.50;1.00;;;;;;2273801;61;1147;-84
2022/03/12 05:15:15;425321.00;1.42;733.34;16387.00;0.05;29.01;;;;;11.40;1.00;;;;;;2273892;61;1632;-82
2022/03/12 05:17:43;917690.00;3.06;1587.21;135969.00;0.45;235.62;;;;;11.00;1.00;;;;;;2274046;61;1124;-84
2022/03/12 05:20:13;770206.00;2.57;1329.21;84123.00;0.28;146.16;;;;;11.30;1.00;;;;;;2274293;61;1161;-84
2022/03/12 05:22:40;995736.00;3.32;1724.92;85307.00;0.28;148.20;;;;;11.50;1.00;;;;;;2273925;61;1058;-84
2022/03/12 05:25:08;951097.00;3.17;1646.05;61015.00;0.20;106.23;;;;;11.70;1.00;;;;;;2274110;61;1292;-84
2022/03/12 05:27:37;1093800.00;3.65;1899.34;56859.00;0.19;99.05;;;;;11.40;1.00;;;;;;2274059;61;2007;-82
2022/03/12 05:30:05;914432.00;3.05;1581.48;61111.00;0.20;106.40;;;;;11.50;1.00;;;;;;2273554;61;1923;-84
2022/03/12 05:32:32;808098.00;2.69;1395.25;50099.00;0.17;87.36;;;;;11.80;1.00;;;;;;2274233;61;1151;-84
2022/03/12 05:34:59;935984.00;3.12;1619.41;52059.00;0.17;90.75;;;;;11.90;1.00;;;;;;2274266;61;1635;-84
2022/03/12 05:37:26;919131.00;3.06;1589.75;90411.00;0.30;157.02;;;;;12.10;1.00;;;;;;2274590;61;1699;-83
2022/03/12 05:39:54;1045398.00;3.48;1813.05;128558.00;0.43;222.84;;;;;11.80;1.00;;;;;;2274792;61;1283;-84
2022/03/12 05:42:22;959542.00;3.20;1660.94;123261.00;0.41;213.71;;;;;11.60;1.00;;;;;;2273929;61;1110;-83
2022/03/12 05:44:54;1065559.00;3.55;1848.94;84709.00;0.28;147.17;;;;;11.30;1.00;;;;;;2273307;61;1759;-83
2022/03/12 05:47:23;911803.00;3.04;1576.86;117626.00;0.39;203.99;;;;;11.20;1.00;;;;;;2273740;61;1248;-84
2022/03/12 05:49:50;936314.00;3.12;1619.99;65578.00;0.22;114.12;;;;;11.40;1.00;;;;;;2274622;61;1935;-85
2022/03/12 05:52:18;1159032.00;3.86;2016.32;102333.00;0.34;177.60;;;;;11.60;1.00;;;;;;2274110;61;1439;-82
2022/03/12 05:54:49;940760.00;3.14;1627.82;143874.00;0.48;249.25;;;;;12.00;1.00;;;;;;2274469;61;1381;-85
2022/03/12 05:57:16;1222451.00;4.07;2130.86;129679.00;0.43;224.78;;;;;12.00;1.00;;;;;;2274714;61;1047;-84
2022/03/12 05:59:43;1223670.00;4.08;2133.07;126402.00;0.42;219.12;;;;;12.10;1.00;;;;;;2274007;61;1124;-84
2022/03/12 06:02:12;1507173.00;5.02;2656.62;121280.00;0.40;210.29;;;;;11.80;1.00;;;;;;2274422;61;1117;-84
2022/03/12 06:04:40;1348202.00;4.49;2360.60;165276.00;0.55;286.13;;;;;11.60;1.00;;;;;;2274342;61;1275;-84
2022/03/12 06:07:09;1216226.00;4.05;2119.58;124206.00;0.41;215.34;;;;;11.60;1.00;;;;;;2273950;61;2236;-85
2022/03/12 06:09:36;1347079.00;4.49;2358.53;55813.00;0.19;97.24;;;;;11.40;1.00;;;;;;2273902;61;1950;-84
2022/03/12 06:12:05;982885.00;3.28;1702.18;83872.00;0.28;145.73;;;;;10.90;1.00;;;;;;2274407;61;2236;-85
2022/03/12 06:14:39;1320738.00;4.40;2310.11;55402.00;0.18;96.53;;;;;10.40;1.00;;;;;;2274058;61;1696;-84
2022/03/12 06:19:36;1828827.00;6.10;3278.57;182327.00;0.61;315.50;;;;;10.00;1.00;;;;;;2271461;61;1423;-83
2022/03/12 06:22:03;1132236.00;3.77;1968.17;46855.00;0.16;81.75;;;;;9.90;1.00;;;;;;2269963;61;1131;-81
2022/03/12 06:24:30;1379591.00;4.60;2418.53;97337.00;0.32;168.98;;;;;10.40;1.00;;;;;;2269747;61;1276;-84
2022/03/12 06:26:58;1354466.00;4.51;2372.14;53632.00;0.18;93.47;;;;;10.80;1.00;;;;;;2270587;61;1835;-85
2022/03/12 06:29:24;1488704.00;4.96;2621.88;105983.00;0.35;183.90;;;;;10.90;1.00;;;;;;2270039;61;1989;-84
2022/03/12 06:31:52;1538956.00;5.13;2716.64;207200.00;0.69;358.32;;;;;10.80;1.00;;;;;;2269501;61;1572;-84
2022/03/12 06:34:19;1697387.00;5.66;3020.35;177469.00;0.59;307.13;;;;;10.50;1.00;;;;;;2270273;61;1299;-83
2022/03/12 06:36:47;1227309.00;4.09;2139.67;137266.00;0.46;237.86;;;;;9.90;1.00;;;;;;2270254;61;1195;-84
2022/03/12 06:39:14;3128166.00;10.43;6256.70;132430.00;0.44;229.52;;;;;10.30;1.00;;;;;;2270107;61;1757;-84
2022/03/12 06:41:45;4207899.00;14.03;9582.17;137787.00;0.46;238.76;;;;;10.60;1.00;;;;;;2269892;61;1174;-83
2022/03/12 06:44:16;1130224.00;3.77;1964.56;128805.00;0.43;223.27;;;;;11.20;1.00;;;;;;2269345;61;1483;-83
2022/03/12 06:46:43;1565700.00;5.22;2767.37;161358.00;0.54;279.38;;;;;11.70;1.00;;;;;;2269517;61;1034;-84
2022/03/12 06:49:10;1289897.00;4.30;2253.63;152907.00;0.51;264.82;;;;;12.10;1.00;;;;;;2270015;61;2002;-84
2022/03/12 06:51:38;1159298.00;3.86;2016.80;169226.00;0.56;292.93;;;;;12.50;1.00;;;;;;2269577;61;1161;-84
2022/03/12 06:54:07;1457192.00;4.86;2562.82;145437.00;0.48;251.94;;;;;12.40;1.00;;;;;;2269157;61;1664;-85
2022/03/12 06:56:35;1265539.00;4.22;2209.17;141775.00;0.47;245.63;;;;;12.60;1.00;;;;;;2269592;61;1239;-84
2022/03/12 06:59:02;1096460.00;3.65;1904.09;159621.00;0.53;276.39;;;;;12.50;1.00;;;;;;2269636;61;1132;-83
2022/03/12 07:01:29;1008010.00;3.36;1746.66;139135.00;0.46;241.08;;;;;12.70;1.00;;;;;;2269298;61;1759;-85
2022/03/12 07:03:56;881644.00;2.94;1523.90;138915.00;0.46;240.70;;;;;12.60;1.00;;;;;;2269583;61;1676;-85
2022/03/12 07:06:23;440933.00;1.47;760.19;84903.00;0.28;147.51;;;;;12.90;1.00;;;;;;2269805;61;1187;-84
2022/03/12 07:08:51;355745.00;1.19;613.74;60984.00;0.20;106.18;;;;;13.20;1.00;;;;;;2269184;61;1727;-84
2022/03/12 07:11:19;328780.00;1.10;567.39;84501.00;0.28;146.81;;;;;12.80;1.00;;;;;;2269230;61;1950;-84
2022/03/12 07:13:48;332797.00;1.11;574.29;73459.00;0.24;127.74;;;;;12.70;1.00;;;;;;2269336;61;1391;-85
2022/03/12 07:16:15;401380.00;1.34;692.18;83128.00;0.28;144.44;;;;;12.70;1.00;;;;;;2265396;61;1810;-84
2022/03/12 07:18:42;351113.00;1.17;605.77;91895.00;0.31;159.58;;;;;13.00;1.00;;;;;;2265583;61;1230;-84
2022/03/12 07:21:09;358998.00;1.20;619.33;103386.00;0.34;179.42;;;;;12.60;1.00;;;;;;2265403;61;1210;-84
2022/03/12 07:23:36;363600.00;1.21;627.24;97386.00;0.32;169.06;;;;;12.10;1.00;;;;;;2265905;61;1432;-84
2022/03/12 07:26:03;433015.00;1.44;746.57;105602.00;0.35;183.24;;;;;11.70;1.00;;;;;;2266252;61;1240;-84
2022/03/12 07:28:32;275106.00;0.92;475.12;75409.00;0.25;131.11;;;;;11.80;1.00;;;;;;2267306;61;1110;-84
2022/03/12 07:30:59;300258.00;1.00;518.36;77087.00;0.26;134.01;;;;;12.10;1.00;;;;;;2265970;61;1936;-85
2022/03/12 07:33:27;781079.00;2.60;1348.15;154422.00;0.51;267.43;;;;;12.60;1.00;;;;;;2266415;61;1575;-86
2022/03/12 07:35:57;326568.00;1.09;563.59;84058.00;0.28;146.05;;;;;12.90;1.00;;;;;;2266035;61;1753;-85
2022/03/12 07:38:24;347247.00;1.16;599.13;86806.00;0.29;150.79;;;;;12.80;1.00;;;;;;2265862;61;1641;-84
2022/03/12 07:40:51;203532.00;0.68;352.00;86939.00;0.29;151.02;;;;;13.10;1.00;;;;;;2266092;61;1124;-85
2022/03/12 07:43:20;259765.00;0.87;448.74;86634.00;0.29;150.50;;;;;13.20;1.00;;;;;;2265963;61;1176;-84
2022/03/12 07:45:49;313442.00;1.04;541.03;81465.00;0.27;141.57;;;;;13.90;1.00;;;;;;2267622;61;1248;-86
2022/03/12 07:48:15;324370.00;1.08;559.81;92546.00;0.31;160.70;;;;;14.20;1.00;;;;;;2268260;61;1854;-87
2022/03/12 07:50:47;322084.00;1.07;555.88;73068.00;0.24;127.06;;;;;14.10;1.00;;;;;;2268342;61;2000;-87
2022/03/12 07:53:14;405907.00;1.35;699.96;133802.00;0.45;231.89;;;;;14.50;1.00;;;;;;2268241;61;1611;-85
2022/03/12 07:55:46;304544.00;1.02;525.73;75685.00;0.25;131.58;;;;;14.50;1.00;;;;;;2268176;61;1305;-86
2022/03/12 07:58:18;360353.00;1.20;621.66;81056.00;0.27;140.86;;;;;14.60;1.00;;;;;;2268265;61;1776;-87
2022/03/12 08:00:46;589631.00;1.97;1016.32;79933.00;0.27;138.92;;;;;14.70;1.00;;;;;;2267062;61;1462;-85
2022/03/12 08:03:16;557701.00;1.86;961.24;103335.00;0.34;179.33;;;;;14.60;1.00;;;;;;2267471;61;1618;-87
2022/03/12 08:05:47;292450.00;0.97;504.94;81834.00;0.27;142.21;;;;;14.90;1.00;;;;;;2268311;61;1418;-87
2022/03/12 08:08:14;511124.00;1.70;880.98;113740.00;0.38;197.28;;;;;14.90;1.00;;;;;;2268137;61;1543;-86
2022/03/12 08:13:21;562700.00;1.88;969.86;96497.00;0.32;167.52;;;;;15.50;1.00;;;;;;2268088;61;1249;-87
2022/03/12 08:15:51;506773.00;1.69;873.49;101946.00;0.34;176.93;;;;;15.30;1.00;;;;;;2268047;61;1290;-86
2022/03/12 08:18:23;119672176.00;398.91;69427360.00;77674.00;0.26;135.02;;;;;14.90;1.00;;;;;;2267937;61;1453;-85
2022/03/12 08:20:51;956736.00;3.19;1655.99;87383.00;0.29;151.79;;;;;14.20;1.00;;;;;;2268236;61;1408;-86
2022/03/12 08:23:18;830635.00;2.77;1434.60;95816.00;0.32;166.35;;;;;14.40;1.00;;;;;;2268131;61;1495;-84
2022/03/12 08:25:48;1134696.00;3.78;1972.58;104012.00;0.35;180.50;;;;;14.40;1.00;;;;;;2268086;61;1440;-84
2022/03/12 08:28:22;1036571.00;3.46;1797.35;107195.00;0.36;185.99;;;;;14.60;1.00;;;;;;2268271;61;1614;-85
2022/03/12 08:30:49;801937.00;2.67;1384.50;0.00;0.00;0.62;;;;;14.60;1.00;;;;;;2268075;61;2006;-86
2022/03/12 08:33:19;687131.00;2.29;1184.93;0.00;0.00;0.62;;;;;14.90;1.00;;;;;;2268011;61;1021;-87
2022/03/12 08:35:48;620227.00;2.07;1069.16;0.00;0.00;0.62;;;;;14.60;1.00;;;;;;2268169;61;1601;-87
2022/03/12 08:38:21;594862.00;1.98;1025.35;0.00;0.00;0.62;;;;;14.50;1.00;;;;;;2267658;61;1182;-85
2022/03/12 08:40:48;691442.00;2.30;1192.40;0.00;0.00;0.62;;;;;14.20;1.00;;;;;;2268109;61;1080;-84
2022/03/12 08:43:15;531648.00;1.77;916.33;65140.00;0.22;113.36;;;;;14.30;1.00;;;;;;2268298;61;1123;-87
2022/03/12 08:45:42;940345.00;3.13;1627.09;113854.00;0.38;197.48;;;;;14.70;1.00;;;;;;2268154;61;1512;-87
2022/03/12 08:48:10;610598.00;2.04;1052.52;48317.00;0.16;84.28;;;;;14.90;1.00;;;;;;2268286;61;1256;-86
2022/03/12 08:50:41;1030817.00;3.44;1787.13;103874.00;0.35;180.26;;;;;15.30;1.00;;;;;;2268149;61;2037;-87
2022/03/12 08:56:00;5922.00;0.02;10.88;0.00;0.00;0.62;;;;;16.10;1.00;;;;;;2267989;61;1402;-84
2022/03/12 08:58:29;174981.00;0.58;302.85;0.00;0.00;0.62;;;;;15.60;1.00;;;;;;2268209;61;1566;-84
2022/03/12 09:00:57;245224.00;0.82;423.74;10811.00;0.04;19.35;;;;;15.10;1.00;;;;;;2268167;61;1614;-86
2022/03/12 09:03:25;401958.00;1.34;693.17;65349.00;0.22;113.72;;;;;15.20;1.00;;;;;;2281706;55;3720;-85
2022/03/12 09:05:53;116891.00;0.39;202.72;0.00;0.00;0.62;;;;;15.50;1.00;;;;;;2272497;61;1583;-90
2022/03/12 09:12:12;569608.00;1.90;981.77;0.00;0.00;0.62;;;;;15.20;1.00;;;;;;2289992;60;1412;-87
2022/03/12 09:14:39;292170.00;0.97;504.46;0.00;0.00;0.62;;;;;15.00;1.00;;;;;;2283685;60;1458;-88
2022/03/12 09:17:06;408342.00;1.36;704.15;0.00;0.00;0.62;;;;;15.30;1.00;;;;;;2283515;61;1696;-88
2022/03/12 09:19:33;21250.00;0.07;37.43;0.00;0.00;0.62;;;;;15.50;1.00;;;;;;2283703;61;1609;-85
2022/03/12 09:22:02;622194.00;2.07;1072.56;101850.00;0.34;176.77;;;;;15.50;1.00;;;;;;2283658;60;1495;-88
2022/03/12 09:24:30;202272.00;0.67;349.83;0.00;0.00;0.62;;;;;15.40;1.00;;;;;;2283644;60;1790;-87
2022/03/12 09:26:59;10530.00;0.04;18.87;0.00;0.00;0.62;;;;;15.30;1.00;;;;;;2283459;61;1182;-87
2022/03/12 09:29:28;263089.00;0.88;454.46;0.00;0.00;0.62;;;;;15.20;1.00;;;;;;2283516;61;1690;-85
2022/03/12 09:31:55;724751.00;2.42;1250.19;20893.00;0.07;36.82;;;;;14.60;1.00;;;;;;2283547;60;1939;-86
2022/03/12 09:34:22;253380.00;0.84;437.76;0.00;0.00;0.62;;;;;14.20;1.00;;;;;;2283579;60;1598;-85
2022/03/12 09:36:49;371763.00;1.24;641.27;40847.00;0.14;71.35;;;;;13.50;1.00;;;;;;2283473;60;1606;-87
2022/03/12 09:39:16;116158.00;0.39;201.45;0.00;0.00;0.62;;;;;12.90;1.00;;;;;;2283678;60;975;-87
2022/03/12 09:41:44;139977.00;0.47;242.53;0.00;0.00;0.62;;;;;13.20;1.00;;;;;;2283495;60;1460;-84
2022/03/12 09:44:11;37836.00;0.13;66.14;0.00;0.00;0.62;;;;;13.00;1.00;;;;;;2283416;60;1241;-84
2022/03/12 09:46:41;45165.00;0.15;78.82;0.00;0.00;0.62;;;;;13.10;1.00;;;;;;2283573;61;1093;-86
2022/03/12 09:49:11;363791.00;1.21;627.56;0.00;0.00;0.62;;;;;13.30;1.00;;;;;;2283571;60;1454;-86
2022/03/12 09:51:38;123845.00;0.41;214.71;0.00;0.00;0.62;;;;;13.40;1.00;;;;;;2283452;60;1939;-85
2022/03/12 09:54:06;283182.00;0.94;489.01;34404.00;0.11;60.21;;;;;13.10;1.00;;;;;;2283479;60;1723;-87
2022/03/12 09:56:33;374832.00;1.25;646.54;22226.00;0.07;39.12;;;;;12.90;1.00;;;;;;2283561;61;1656;-85
2022/03/12 09:59:00;40952.00;0.14;71.54;0.00;0.00;0.62;;;;;12.60;1.00;;;;;;2283497;60;1574;-85
2022/03/12 10:01:27;56535.00;0.19;98.49;0.00;0.00;0.62;;;;;12.70;1.00;;;;;;2283568;60;1782;-85
2022/03/12 10:04:05;157292.00;0.52;272.37;6063.00;0.02;11.13;;;;;12.70;1.00;;;;;;2283693;60;1257;-88
2022/03/12 10:06:32;407934.00;1.36;703.45;0.00;0.00;0.62;;;;;13.10;1.00;;;;;;2283440;60;1510;-86
2022/03/12 10:09:03;314721.00;1.05;543.22;0.00;0.00;0.62;;;;;13.50;1.00;;;;;;2281984;61;1978;-87